Time;durP1;ratioP1;P1;durP2;ratioP2;P2;SDS_P1;SDS_P2;PMS_P1;PMS_P2;Temp;Humidity;BMP_temperature;BMP_pressure;BME280_temperature;BME280_humidity;BME280_pressure;Samples;Min_cycle;Max_cycle;Signal;HPM_P1;HPM_P2
2021/05/13 00:01:23;;;;;;;6.53;5.00;;;11.30;1.00;;;;;;5096236;28;20574;-69
2021/05/13 00:03:49;;;;;;;5.40;4.20;;;11.30;1.00;;;;;;5096025;28;20171;-69
2021/05/13 00:06:15;;;;;;;7.33;5.00;;;11.30;1.00;;;;;;5096205;28;20259;-69
2021/05/13 00:08:41;;;;;;;5.87;4.80;;;11.20;1.00;;;;;;5095418;28;20425;-70
2021/05/13 00:11:07;;;;;;;6.00;4.73;;;11.20;30.30;;;;;;5095352;28;20198;-69
2021/05/13 00:13:36;;;;;;;11.63;5.60;;;11.10;1.00;;;;;;5095618;28;20441;-69
2021/05/13 00:16:02;;;;;;;12.47;5.80;;;10.90;99.90;;;;;;5095664;28;20401;-69
2021/05/13 00:18:28;;;;;;;9.30;5.30;;;10.90;26.20;;;;;;5095307;28;20401;-69
2021/05/13 00:20:54;;;;;;;7.17;5.90;;;11.00;1.00;;;;;;5095531;28;20512;-69
2021/05/13 00:23:21;;;;;;;5.73;5.00;;;10.80;1.00;;;;;;5095427;28;20445;-68
2021/05/13 00:25:49;;;;;;;10.33;5.87;;;10.70;99.90;;;;;;5095112;28;20969;-69
2021/05/13 00:28:14;;;;;;;14.30;5.90;;;10.80;99.90;;;;;;5095168;28;20459;-69
2021/05/13 00:30:40;;;;;;;5.67;4.87;;;10.80;99.90;;;;;;5095066;28;20457;-69
2021/05/13 00:33:06;;;;;;;6.17;5.50;;;10.60;99.90;;;;;;5095030;28;20262;-69
2021/05/13 00:35:31;;;;;;;8.63;6.13;;;10.50;99.90;;;;;;5095172;28;20195;-69
2021/05/13 00:37:57;;;;;;;5.93;5.23;;;10.50;1.00;;;;;;5095185;28;20174;-69
2021/05/13 00:40:22;;;;;;;7.13;5.63;;;10.70;99.90;;;;;;5095103;28;20243;-69
2021/05/13 00:42:50;;;;;;;5.97;5.37;;;10.60;1.00;;;;;;5095090;28;20529;-69
2021/05/13 00:45:16;;;;;;;7.37;5.47;;;10.60;1.00;;;;;;5094226;28;20659;-69
2021/05/13 00:47:48;;;;;;;8.00;5.77;;;10.60;1.00;;;;;;5094626;28;20929;-68
2021/05/13 00:50:16;;;;;;;5.70;5.17;;;10.60;99.90;;;;;;5094924;28;20957;-69
2021/05/13 00:52:42;;;;;;;9.27;5.57;;;10.30;99.90;;;;;;5094911;28;20394;-68
2021/05/13 00:55:10;;;;;;;5.80;5.30;;;10.10;99.90;;;;;;5094888;28;20435;-69
2021/05/13 00:57:36;;;;;;;8.20;5.27;;;10.20;99.90;;;;;;5095667;28;20397;-69
2021/05/13 01:00:08;;;;;;;5.90;5.30;;;10.40;1.00;;;;;;5094464;28;20401;-69
2021/05/13 01:02:33;;;;;;;7.93;5.60;;;10.50;99.90;;;;;;5095070;28;20152;-69
2021/05/13 01:04:59;;;;;;;7.03;5.50;;;10.40;10.90;;;;;;5094621;28;20833;-69
2021/05/13 01:07:25;;;;;;;6.27;5.13;;;10.10;16.80;;;;;;5094287;28;20263;-69
2021/05/13 01:09:50;;;;;;;11.53;6.23;;;9.90;99.90;;;;;;5094505;28;20191;-69
2021/05/13 01:12:18;;;;;;;6.70;5.63;;;10.10;1.00;;;;;;5094444;28;20212;-68
2021/05/13 01:14:45;;;;;;;8.30;5.83;;;10.10;1.00;;;;;;5094227;28;20232;-69
2021/05/13 01:17:20;;;;;;;6.83;5.40;;;10.10;99.90;;;;;;5094158;28;20435;-69
2021/05/13 01:19:49;;;;;;;6.13;5.60;;;10.10;55.10;;;;;;5094356;28;20436;-69
2021/05/13 01:22:21;;;;;;;7.90;6.50;;;10.10;99.90;;;;;;5094207;28;20405;-69
2021/05/13 01:24:47;;;;;;;11.80;5.93;;;10.10;99.90;;;;;;5094047;28;20524;-69
2021/05/13 01:27:13;;;;;;;7.40;5.73;;;10.00;99.90;;;;;;5094403;28;20843;-69
2021/05/13 01:29:45;;;;;;;8.33;6.37;;;10.00;1.00;;;;;;5093717;28;20489;-69
2021/05/13 01:32:13;;;;;;;8.37;6.27;;;10.10;1.00;;;;;;5093784;28;20283;-69
2021/05/13 01:34:38;;;;;;;6.47;5.43;;;10.00;99.90;;;;;;5093771;28;20418;-69
2021/05/13 01:37:04;;;;;;;6.97;5.77;;;10.00;90.40;;;;;;5093764;28;20423;-69
2021/05/13 01:39:29;;;;;;;6.13;5.53;;;9.90;99.90;;;;;;5093976;28;20174;-69
2021/05/13 01:41:55;;;;;;;10.20;5.90;;;9.90;99.90;;;;;;5093956;28;20528;-69
2021/05/13 01:44:21;;;;;;;10.60;6.87;;;9.90;99.90;;;;;;5093666;28;20223;-69
2021/05/13 01:46:46;;;;;;;7.30;5.63;;;9.80;99.90;;;;;;5093866;28;20168;-69
2021/05/13 01:49:17;;;;;;;7.33;6.53;;;9.80;97.50;;;;;;5093532;28;20203;-69
2021/05/13 01:51:43;;;;;;;7.13;6.43;;;9.80;99.90;;;;;;5093512;28;20164;-69
2021/05/13 01:54:09;;;;;;;7.00;6.20;;;9.80;1.00;;;;;;5093408;28;20474;-68
2021/05/13 01:56:34;;;;;;;7.53;6.43;;;9.80;1.00;;;;;;5092838;28;20907;-68
2021/05/13 01:59:00;;;;;;;9.23;6.97;;;9.80;1.00;;;;;;5093641;28;20174;-68
2021/05/13 02:01:25;;;;;;;12.10;6.93;;;9.80;99.90;;;;;;5093615;28;20227;-68
2021/05/13 02:03:51;;;;;;;7.70;7.00;;;9.80;99.90;;;;;;5093348;28;20224;-68
2021/05/13 02:06:16;;;;;;;7.30;6.60;;;9.80;99.90;;;;;;5093425;28;20167;-68
2021/05/13 02:08:42;;;;;;;10.17;6.33;;;9.80;99.90;;;;;;5093135;28;20214;-69
2021/05/13 02:11:07;;;;;;;10.27;6.73;;;9.60;99.90;;;;;;5093191;28;20278;-69
2021/05/13 02:13:33;;;;;;;9.73;6.30;;;9.60;1.00;;;;;;5093175;28;20167;-68
2021/05/13 02:15:59;;;;;;;7.30;6.23;;;9.50;1.00;;;;;;5093480;28;20517;-68
2021/05/13 02:18:24;;;;;;;7.33;6.43;;;9.40;99.90;;;;;;5093102;28;20170;-69
2021/05/13 02:20:50;;;;;;;10.60;6.03;;;9.50;99.90;;;;;;5093152;28;20175;-69
2021/05/13 02:23:16;;;;;;;6.60;5.93;;;9.60;39.80;;;;;;5093097;28;20171;-68
2021/05/13 02:25:46;;;;;;;7.53;6.60;;;9.50;1.00;;;;;;5092990;28;20202;-68
2021/05/13 02:28:12;;;;;;;7.33;6.60;;;9.60;99.90;;;;;;5093341;28;20398;-69
2021/05/13 02:30:38;;;;;;;8.60;6.40;;;9.50;99.90;;;;;;5093211;28;21007;-68
2021/05/13 02:33:04;;;;;;;8.43;7.00;;;9.50;99.90;;;;;;5092923;28;20438;-68
2021/05/13 02:35:30;;;;;;;9.50;6.80;;;9.50;99.90;;;;;;5092907;28;20241;-68
2021/05/13 02:37:55;;;;;;;6.40;5.70;;;9.50;1.00;;;;;;5092922;28;20398;-69
2021/05/13 02:40:21;;;;;;;8.70;7.33;;;9.40;5.60;;;;;;5093440;28;20240;-68
2021/05/13 02:42:47;;;;;;;8.30;7.23;;;9.30;99.90;;;;;;5092898;28;20179;-68
2021/05/13 02:45:14;;;;;;;10.60;7.17;;;9.40;1.00;;;;;;5092931;28;20187;-68
2021/05/13 02:47:40;;;;;;;10.50;7.10;;;9.40;1.00;;;;;;5092912;28;20500;-69
2021/05/13 02:50:09;;;;;;;25.70;10.80;;;9.50;1.00;;;;;;5093017;28;20540;-68
2021/05/13 02:52:35;;;;;;;9.37;7.63;;;9.60;99.90;;;;;;5092745;28;20416;-69
2021/05/13 02:55:00;;;;;;;9.90;7.00;;;9.80;47.90;;;;;;5092786;28;20599;-69
2021/05/13 02:57:26;;;;;;;9.33;7.87;;;9.50;1.00;;;;;;5093198;28;20498;-69
2021/05/13 02:59:58;;;;;;;11.20;7.07;;;9.50;1.00;;;;;;5092779;28;20175;-69
2021/05/13 03:02:24;;;;;;;9.57;8.30;;;9.30;1.00;;;;;;5092852;28;20755;-69
2021/05/13 03:04:49;;;;;;;9.93;7.77;;;9.40;1.00;;;;;;5092617;28;20429;-69
2021/05/13 03:07:15;;;;;;;8.70;7.23;;;9.50;99.90;;;;;;5092572;28;20184;-69
2021/05/13 03:09:45;;;;;;;13.10;7.60;;;9.30;1.00;;;;;;5096678;28;20194;-69
2021/05/13 03:12:10;;;;;;;9.37;8.10;;;9.30;99.90;;;;;;5096822;28;20174;-69
2021/05/13 03:14:37;;;;;;;11.80;8.27;;;9.30;99.90;;;;;;5097215;28;20517;-69
2021/05/13 03:17:03;;;;;;;9.80;7.03;;;9.30;48.40;;;;;;5096742;28;20168;-68
2021/05/13 03:19:56;;;;;;;12.20;8.30;;;9.20;1.00;;;;;;5096652;28;20424;-68
2021/05/13 03:22:18;;;;;;;12.07;8.00;;;9.10;99.90;;;;;;5096018;28;20417;-69
2021/05/13 03:27:24;;;;;;;10.83;8.20;;;9.00;99.90;;;;;;5096371;28;20405;-69
2021/05/13 03:29:54;;;;;;;8.70;7.70;;;9.30;23.70;;;;;;5096232;28;20539;-69
2021/05/13 03:32:20;;;;;;;13.03;8.23;;;9.30;99.90;;;;;;5096191;28;20392;-69
2021/05/13 03:34:45;;;;;;;12.60;7.33;;;9.40;1.00;;;;;;5096071;28;20863;-69
2021/05/13 03:37:11;;;;;;;9.47;7.27;;;9.10;1.00;;;;;;5096078;28;20492;-69
2021/05/13 03:39:37;;;;;;;8.70;7.80;;;9.10;99.90;;;;;;5096596;28;20168;-69
2021/05/13 03:42:02;;;;;;;9.20;7.73;;;9.10;99.90;;;;;;5096032;28;20176;-69
2021/05/13 03:44:28;;;;;;;9.40;8.03;;;9.10;1.00;;;;;;5095850;28;20179;-68
2021/05/13 03:46:53;;;;;;;9.93;7.80;;;9.00;1.00;;;;;;5095908;28;20163;-69
2021/05/13 03:49:19;;;;;;;7.80;7.13;;;9.10;1.00;;;;;;5095921;28;20178;-69
2021/05/13 03:51:44;;;;;;;16.80;8.03;;;9.00;1.00;;;;;;5095858;28;20202;-69
2021/05/13 03:54:10;;;;;;;11.23;8.00;;;8.80;8.30;;;;;;5095699;28;20660;-69
2021/05/13 03:56:35;;;;;;;11.20;7.40;;;8.90;99.90;;;;;;5095728;28;20243;-69
2021/05/13 03:59:07;;;;;;;8.57;7.40;;;8.90;1.00;;;;;;5095750;28;20224;-69
2021/05/13 04:02:04;;;;;;;7.93;6.53;;;9.00;1.00;;;;;;5095929;28;20627;-69
2021/05/13 04:04:29;;;;;;;8.73;7.20;;;9.00;1.00;;;;;;5095587;28;20406;-69
2021/05/13 04:06:55;;;;;;;11.00;7.80;;;8.90;1.00;;;;;;5095609;28;20418;-69
2021/05/13 04:09:21;;;;;;;10.90;7.40;;;8.80;60.20;;;;;;5095686;28;20397;-69
2021/05/13 04:11:46;;;;;;;10.30;9.07;;;8.90;99.90;;;;;;5095735;28;20199;-69
2021/05/13 04:14:12;;;;;;;9.40;7.90;;;8.80;1.00;;;;;;5095249;28;20187;-68
2021/05/13 04:16:41;;;;;;;9.93;7.97;;;8.60;99.90;;;;;;5095357;28;20651;-69
2021/05/13 04:19:07;;;;;;;9.47;8.07;;;8.60;99.90;;;;;;5095025;28;20527;-69
2021/05/13 04:21:32;;;;;;;10.60;8.10;;;8.80;1.00;;;;;;5094650;28;20481;-69
2021/05/13 04:23:58;;;;;;;9.37;7.43;;;8.80;1.00;;;;;;5095128;28;20214;-68
2021/05/13 04:26:24;;;;;;;8.50;7.53;;;8.90;99.90;;;;;;5095407;28;20250;-69
2021/05/13 04:28:50;;;;;;;13.50;7.93;;;8.80;99.90;;;;;;5095102;28;20696;-69
2021/05/13 04:31:16;;;;;;;10.40;8.53;;;8.80;99.90;;;;;;5093688;28;20205;-69
2021/05/13 04:33:42;;;;;;;10.73;7.40;;;9.00;99.90;;;;;;5095238;28;20435;-68
2021/05/13 04:36:08;;;;;;;9.00;7.80;;;9.00;99.90;;;;;;5095548;28;20954;-69
2021/05/13 04:38:34;;;;;;;10.20;8.70;;;9.00;39.50;;;;;;5094893;28;20159;-69
2021/05/13 04:41:00;;;;;;;8.60;7.67;;;9.10;17.70;;;;;;5094843;28;20411;-69
2021/05/13 04:43:33;;;;;;;9.17;7.70;;;9.10;1.00;;;;;;5094704;28;20167;-69
2021/05/13 04:45:59;;;;;;;8.80;7.07;;;9.10;1.00;;;;;;5094899;28;20914;-69
2021/05/13 04:48:26;;;;;;;7.90;7.20;;;9.10;1.00;;;;;;5094627;28;20492;-68
2021/05/13 04:50:52;;;;;;;12.30;7.40;;;9.20;1.00;;;;;;5094525;28;20961;-69
2021/05/13 04:53:17;;;;;;;8.90;8.00;;;9.20;99.90;;;;;;5094554;28;20404;-69
2021/05/13 04:55:43;;;;;;;8.80;7.90;;;9.10;1.00;;;;;;5094484;28;20215;-69
2021/05/13 04:58:09;;;;;;;10.67;8.63;;;9.20;99.90;;;;;;5094359;28;20217;-69
2021/05/13 05:00:37;;;;;;;7.97;7.17;;;9.30;99.90;;;;;;5094356;28;20195;-70
2021/05/13 05:03:03;;;;;;;9.33;8.13;;;9.50;1.00;;;;;;5094183;28;20167;-69
2021/05/13 05:05:29;;;;;;;10.90;7.80;;;9.60;99.90;;;;;;5094112;28;20520;-70
2021/05/13 05:07:55;;;;;;;12.03;8.30;;;9.70;99.90;;;;;;5094462;28;20918;-70
2021/05/13 05:10:21;;;;;;;10.43;7.87;;;9.60;15.40;;;;;;5094085;28;20445;-70
2021/05/13 05:12:47;;;;;;;9.23;8.33;;;9.70;1.00;;;;;;5094077;28;20666;-69
2021/05/13 05:15:13;;;;;;;9.73;7.30;;;9.80;1.00;;;;;;5094059;28;20413;-69
2021/05/13 05:17:38;;;;;;;7.30;6.60;;;9.90;99.90;;;;;;5094169;28;20636;-70
2021/05/13 05:20:05;;;;;;;10.80;7.00;;;9.90;25.00;;;;;;5094320;28;20427;-69
2021/05/13 05:22:31;;;;;;;10.90;6.70;;;10.00;1.00;;;;;;5094030;28;20266;-69
2021/05/13 05:24:56;;;;;;;9.20;5.73;;;10.10;1.00;;;;;;5094052;28;20479;-69
2021/05/13 05:27:22;;;;;;;9.20;6.43;;;10.20;1.00;;;;;;5094049;28;20479;-70
2021/05/13 05:29:47;;;;;;;7.50;6.80;;;10.30;1.00;;;;;;5094452;28;20199;-69
2021/05/13 05:32:13;;;;;;;7.27;6.57;;;10.30;1.00;;;;;;5094156;28;20643;-69
2021/05/13 05:34:38;;;;;;;7.00;5.97;;;10.40;99.90;;;;;;5094090;28;20533;-70
2021/05/13 05:37:04;;;;;;;8.30;6.57;;;10.40;1.00;;;;;;5093821;28;20178;-69
2021/05/13 05:39:30;;;;;;;7.70;6.83;;;10.30;1.00;;;;;;5093726;28;20175;-69
2021/05/13 05:41:55;;;;;;;7.53;6.83;;;10.40;1.00;;;;;;5094026;28;20195;-70
2021/05/13 05:44:21;;;;;;;8.27;7.27;;;10.40;1.00;;;;;;5093843;28;20248;-69
2021/05/13 05:46:47;;;;;;;7.67;6.50;;;10.50;1.00;;;;;;5093903;28;20175;-69
2021/05/13 05:49:13;;;;;;;11.83;7.13;;;10.60;1.00;;;;;;5093523;28;20414;-69
2021/05/13 05:51:38;;;;;;;7.77;6.80;;;10.60;1.00;;;;;;5093589;28;20582;-70
2021/05/13 05:54:05;;;;;;;7.43;6.37;;;10.70;1.00;;;;;;5093752;28;20237;-69
2021/05/13 05:56:30;;;;;;;12.47;7.03;;;10.90;1.00;;;;;;5093792;28;20224;-69
2021/05/13 05:58:56;;;;;;;6.10;5.50;;;11.00;1.00;;;;;;5093459;28;20785;-69
2021/05/13 06:01:22;;;;;;;7.30;6.57;;;11.10;1.00;;;;;;5093774;28;20167;-70
2021/05/13 06:03:47;;;;;;;11.07;6.90;;;11.30;1.00;;;;;;5093298;28;20167;-69
2021/05/13 06:06:13;;;;;;;6.67;5.97;;;11.40;1.00;;;;;;5093311;28;20744;-70
2021/05/13 06:08:38;;;;;;;8.03;5.40;;;11.70;99.90;;;;;;5093221;28;20191;-70
2021/05/13 06:11:04;;;;;;;7.40;6.27;;;12.00;99.90;;;;;;5093463;28;20199;-69
2021/05/13 06:13:30;;;;;;;10.20;6.07;;;12.20;99.90;;;;;;5093464;28;20201;-70
2021/05/13 06:15:55;;;;;;;6.57;6.00;;;12.20;99.90;;;;;;5093069;28;20417;-69
2021/05/13 06:18:21;;;;;;;7.47;5.20;;;12.30;99.90;;;;;;5093447;28;20217;-70
2021/05/13 06:20:47;;;;;;;7.23;6.03;;;12.30;99.90;;;;;;5093136;28;20229;-70
2021/05/13 06:23:12;;;;;;;7.20;5.00;;;12.40;99.90;;;;;;5093278;28;20224;-70
2021/05/13 06:25:38;;;;;;;7.33;6.30;;;12.30;99.90;;;;;;5093311;28;20191;-68
2021/05/13 06:28:04;;;;;;;12.37;7.30;;;12.40;97.80;;;;;;5093588;28;20173;-68
2021/05/13 06:30:30;;;;;;;10.63;6.53;;;12.50;99.90;;;;;;5092987;28;20199;-68
2021/05/13 06:32:55;;;;;;;6.90;5.67;;;12.50;65.30;;;;;;5093288;28;20404;-68
2021/05/13 06:35:21;;;;;;;7.30;6.30;;;12.50;84.00;;;;;;5092930;28;20199;-68
2021/05/13 06:37:48;;;;;;;7.40;6.20;;;12.70;71.30;;;;;;5092923;28;20173;-68
2021/05/13 06:40:14;;;;;;;5.73;5.23;;;12.80;59.20;;;;;;5092948;28;20416;-68
2021/05/13 06:42:41;;;;;;;6.07;5.57;;;12.90;40.50;;;;;;5093310;28;20451;-69
2021/05/13 06:45:08;;;;;;;6.30;5.70;;;12.90;63.10;;;;;;5097401;28;20444;-70
2021/05/13 06:47:34;;;;;;;6.87;6.07;;;12.90;47.70;;;;;;5097092;28;21001;-69
2021/05/13 06:50:00;;;;;;;7.20;6.50;;;13.10;73.30;;;;;;5097079;28;20868;-69
2021/05/13 06:52:25;;;;;;;7.10;5.80;;;13.10;75.70;;;;;;5096948;28;20409;-69
2021/05/13 06:54:51;;;;;;;6.23;5.50;;;13.10;52.90;;;;;;5096967;28;20486;-69
2021/05/13 06:57:16;;;;;;;5.33;4.83;;;12.80;99.10;;;;;;5097052;28;20170;-69
2021/05/13 06:59:43;;;;;;;6.40;5.70;;;13.00;99.90;;;;;;5097176;28;20175;-69
2021/05/13 07:02:09;;;;;;;5.80;4.93;;;13.20;85.40;;;;;;5097126;28;20179;-69
2021/05/13 07:04:35;;;;;;;6.07;4.70;;;13.50;48.70;;;;;;5096723;28;20465;-69
2021/05/13 07:07:01;;;;;;;12.33;5.30;;;13.50;10.70;;;;;;5096937;28;20432;-69
2021/05/13 07:09:26;;;;;;;5.10;4.60;;;13.70;1.00;;;;;;5096646;28;20402;-69
2021/05/13 07:11:52;;;;;;;5.73;4.40;;;13.60;1.00;;;;;;5096907;28;20292;-69
2021/05/13 07:14:18;;;;;;;4.30;3.90;;;13.80;1.00;;;;;;5096479;28;20561;-69
2021/05/13 07:16:43;;;;;;;4.83;3.43;;;13.60;1.00;;;;;;5096561;28;20616;-69
2021/05/13 07:19:09;;;;;;;5.07;4.57;;;13.70;1.00;;;;;;5096555;28;20170;-69
2021/05/13 07:21:34;;;;;;;7.33;4.37;;;13.80;1.00;;;;;;5096394;28;20580;-69
2021/05/13 07:24:01;;;;;;;3.80;3.50;;;14.10;1.00;;;;;;5096425;28;20192;-69
2021/05/13 07:26:27;;;;;;;8.90;4.57;;;13.90;1.00;;;;;;5096344;28;20694;-69
2021/05/13 07:28:52;;;;;;;6.20;4.37;;;14.10;1.00;;;;;;5096415;28;20497;-69
2021/05/13 07:31:19;;;;;;;4.00;3.60;;;14.20;1.00;;;;;;5096428;28;20944;-70
2021/05/13 07:33:44;;;;;;;4.60;3.93;;;14.30;1.00;;;;;;5096152;28;20213;-69
2021/05/13 07:36:10;;;;;;;5.03;4.60;;;14.40;1.00;;;;;;5096168;28;20428;-69
2021/05/13 07:38:35;;;;;;;5.47;3.80;;;14.60;1.00;;;;;;5096505;28;20174;-69
2021/05/13 07:41:04;;;;;;;4.30;3.40;;;14.60;1.00;;;;;;5096058;28;20203;-69
2021/05/13 07:43:30;;;;;;;5.13;3.70;;;14.70;1.00;;;;;;5096601;28;20793;-69
2021/05/13 07:45:56;;;;;;;4.10;3.57;;;14.80;1.00;;;;;;5095935;28;20441;-69
2021/05/13 07:48:22;;;;;;;5.40;3.60;;;14.80;1.00;;;;;;5095935;28;20538;-70
2021/05/13 07:50:48;;;;;;;5.27;4.30;;;15.00;1.00;;;;;;5095972;28;20555;-69
2021/05/13 07:53:14;;;;;;;3.93;3.53;;;15.00;1.00;;;;;;5095803;28;20409;-69
2021/05/13 07:55:40;;;;;;;5.10;4.20;;;14.80;1.00;;;;;;5093160;28;20199;-69
2021/05/13 07:58:06;;;;;;;7.10;6.30;;;15.10;1.00;;;;;;5096021;28;20413;-69
2021/05/13 08:00:33;;;;;;;3.93;3.63;;;15.30;1.00;;;;;;5095568;28;20431;-69
2021/05/13 08:02:59;;;;;;;4.07;3.30;;;15.40;1.00;;;;;;5095465;28;20177;-69
2021/05/13 08:05:24;;;;;;;4.20;3.30;;;15.40;1.00;;;;;;5095357;28;20422;-69
2021/05/13 08:07:50;;;;;;;5.30;2.70;;;15.60;1.00;;;;;;5094114;28;20207;-69
2021/05/13 08:10:16;;;;;;;3.00;2.80;;;15.70;1.00;;;;;;5095280;28;20198;-69
2021/05/13 08:12:41;;;;;;;4.30;3.90;;;15.70;1.00;;;;;;5095557;28;20178;-69
2021/05/13 08:15:11;;;;;;;4.27;3.87;;;15.60;1.00;;;;;;5095973;28;20241;-69
2021/05/13 08:17:40;;;;;;;7.90;3.80;;;16.00;1.00;;;;;;5095157;28;20164;-69
2021/05/13 08:20:08;;;;;;;3.20;2.90;;;16.00;1.00;;;;;;5095346;28;20402;-69
2021/05/13 08:22:34;;;;;;;4.33;3.23;;;16.30;1.00;;;;;;5095102;28;20417;-69
2021/05/13 08:25:01;;;;;;;6.40;3.40;;;16.20;1.00;;;;;;5095031;28;20433;-69
2021/05/13 08:27:26;;;;;;;7.80;4.67;;;16.20;1.00;;;;;;5095139;28;20414;-69
2021/05/13 08:29:52;;;;;;;4.23;3.00;;;16.00;1.00;;;;;;5095248;28;20449;-69
2021/05/13 08:32:17;;;;;;;5.93;2.60;;;16.20;1.00;;;;;;5095201;28;20198;-69
2021/05/13 08:34:43;;;;;;;5.87;3.30;;;16.50;1.00;;;;;;5095186;28;20673;-69
2021/05/13 08:37:08;;;;;;;5.90;4.20;;;16.40;1.00;;;;;;5095075;28;20175;-69
2021/05/13 08:39:34;;;;;;;8.00;4.07;;;16.60;1.00;;;;;;5095164;28;20168;-69
2021/05/13 08:42:01;;;;;;;5.30;3.30;;;16.90;1.00;;;;;;5094864;28;20536;-69
2021/05/13 08:44:28;;;;;;;5.13;4.20;;;17.10;1.00;;;;;;5094994;28;20311;-69
2021/05/13 08:46:55;;;;;;;3.90;2.70;;;16.70;1.00;;;;;;5094735;28;20407;-69
2021/05/13 08:49:22;;;;;;;6.13;3.47;;;17.00;1.00;;;;;;5094916;28;20410;-69
2021/05/13 08:51:47;;;;;;;5.67;3.60;;;17.30;1.00;;;;;;5094521;28;20405;-69
2021/05/13 08:54:13;;;;;;;4.40;3.00;;;17.10;1.00;;;;;;5094738;28;20517;-69
2021/05/13 08:56:38;;;;;;;4.77;4.20;;;17.20;1.00;;;;;;5095232;28;20176;-69
2021/05/13 08:59:05;;;;;;;5.10;4.60;;;17.50;1.00;;;;;;5094501;28;20190;-69
2021/05/13 09:01:35;;;;;;;6.03;5.30;;;17.80;1.00;;;;;;5094420;28;20531;-69
2021/05/13 09:04:02;;;;;;;9.13;6.60;;;17.80;1.00;;;;;;5094387;28;20426;-69
2021/05/13 09:06:33;;;;;;;9.20;6.50;;;17.80;1.00;;;;;;5094133;28;20420;-69
2021/05/13 09:09:12;;;;;;;9.03;5.60;;;17.90;1.00;;;;;;5094295;28;20869;-69
2021/05/13 09:11:52;;;;;;;7.27;5.20;;;18.00;1.00;;;;;;5094193;28;20455;-69
2021/05/13 09:14:27;;;;;;;8.13;5.80;;;18.20;1.00;;;;;;5092745;28;20464;-70
2021/05/13 09:16:54;;;;;;;7.63;5.53;;;18.40;1.00;;;;;;5094423;28;20406;-69
2021/05/13 09:19:27;;;;;;;4.90;3.90;;;18.30;1.00;;;;;;5092722;28;20964;-70
2021/05/13 09:22:05;;;;;;;7.67;3.40;;;18.50;1.00;;;;;;5094388;28;20782;-69
2021/05/13 09:24:59;;;;;;;6.03;2.50;;;18.10;1.00;;;;;;5094709;28;20439;-69
2021/05/13 09:27:52;;;;;;;2.97;2.13;;;18.60;1.00;;;;;;5094218;28;20404;-69
2021/05/13 09:30:24;;;;;;;3.87;3.30;;;18.70;1.00;;;;;;5093808;28;20791;-69
2021/05/13 09:32:54;;;;;;;4.17;2.43;;;18.60;1.00;;;;;;5094165;28;20402;-69
2021/05/13 09:35:24;;;;;;;4.83;2.70;;;19.20;1.00;;;;;;5093719;28;20834;-69
2021/05/13 09:37:54;;;;;;;5.33;2.30;;;19.10;1.00;;;;;;5094159;28;20390;-69
2021/05/13 09:40:36;;;;;;;4.53;2.50;;;18.70;1.00;;;;;;5093642;28;20497;-69
2021/05/13 09:43:17;;;;;;;4.47;2.20;;;19.00;1.00;;;;;;5093723;28;20392;-69
2021/05/13 09:45:50;;;;;;;3.20;2.10;;;18.70;1.00;;;;;;5093348;28;20453;-70
2021/05/13 09:48:39;;;;;;;3.23;1.90;;;19.00;1.00;;;;;;5093473;28;20393;-70
2021/05/13 09:51:24;;;;;;;5.93;2.00;;;19.50;1.00;;;;;;5077722;28;20980;-70
2021/05/13 09:54:09;;;;;;;2.10;1.50;;;19.40;1.00;;;;;;5093469;28;20398;-70
2021/05/13 09:56:38;;;;;;;3.63;1.63;;;19.60;1.00;;;;;;5093709;28;20379;-68
2021/05/13 09:59:20;;;;;;;3.83;1.00;;;19.30;1.00;;;;;;5093845;28;20408;-68
2021/05/13 10:01:47;;;;;;;2.40;0.93;;;18.70;1.00;;;;;;5093658;28;20398;-68
2021/05/13 10:04:13;;;;;;;5.43;1.73;;;19.30;1.00;;;;;;5093282;28;20471;-69
2021/05/13 10:06:38;;;;;;;3.17;2.53;;;19.30;1.00;;;;;;5093185;28;20416;-69
2021/05/13 10:09:04;;;;;;;5.70;2.63;;;19.40;1.00;;;;;;5093174;28;20197;-68
2021/05/13 10:11:31;;;;;;;4.73;3.40;;;19.30;1.00;;;;;;5093297;28;20260;-68
2021/05/13 10:13:57;;;;;;;5.10;2.43;;;19.60;1.00;;;;;;5093373;28;20513;-69
2021/05/13 10:16:24;;;;;;;3.63;1.40;;;20.20;1.00;;;;;;5093196;28;20434;-69
2021/05/13 10:18:56;;;;;;;4.60;2.13;;;20.70;1.00;;;;;;5092477;28;20551;-69
2021/05/13 10:21:28;;;;;;;3.67;1.63;;;20.00;99.90;;;;;;5093329;28;20398;-69
2021/05/13 10:23:55;;;;;;;2.27;1.00;;;20.40;99.90;;;;;;5092903;28;20492;-69
2021/05/13 10:26:32;;;;;;;4.17;1.20;;;20.80;99.90;;;;;;5093280;28;20418;-69
2021/05/13 10:28:58;;;;;;;3.30;1.57;;;20.40;99.90;;;;;;5093053;28;20401;-69
2021/05/13 10:31:37;;;;;;;3.57;1.70;;;21.00;99.90;;;;;;5092902;28;20975;-70
2021/05/13 10:34:03;;;;;;;7.13;1.83;;;20.90;99.90;;;;;;5093051;28;20526;-69
2021/05/13 10:36:29;;;;;;;2.07;0.97;;;20.70;99.90;;;;;;5093232;28;20397;-69
2021/05/13 10:39:05;;;;;;;3.17;1.43;;;21.10;99.90;;;;;;5093231;28;20460;-70
2021/05/13 10:41:36;;;;;;;3.33;1.77;;;21.50;99.90;;;;;;5093166;28;20148;-70
2021/05/13 10:44:07;;;;;;;7.40;3.93;;;21.80;99.90;;;;;;5093749;28;20473;-70
2021/05/13 10:46:33;;;;;;;4.33;1.87;;;22.20;99.90;;;;;;5092806;28;20447;-70
2021/05/13 10:49:15;;;;;;;4.73;2.10;;;21.70;99.90;;;;;;5092543;28;20417;-70
2021/05/13 10:51:43;;;;;;;3.47;1.00;;;22.00;99.90;;;;;;5092858;28;20580;-70
2021/05/13 10:54:09;;;;;;;6.90;1.30;;;21.30;99.90;;;;;;5091500;28;20516;-70
2021/05/13 10:56:38;;;;;;;7.10;2.60;;;21.70;99.90;;;;;;5093178;28;20410;-70
2021/05/13 10:59:09;;;;;;;3.60;1.27;;;21.70;99.90;;;;;;5092482;28;20414;-70
2021/05/13 11:01:46;;;;;;;1.43;1.00;;;21.90;99.90;;;;;;5091291;28;20420;-70
2021/05/13 11:04:24;;;;;;;2.67;1.00;;;21.60;99.90;;;;;;5092520;28;20521;-69
2021/05/13 11:06:58;;;;;;;1.97;0.93;;;22.40;99.90;;;;;;5092767;28;20408;-70
2021/05/13 11:09:43;;;;;;;4.17;1.33;;;21.90;99.90;;;;;;5092645;28;20418;-71
2021/05/13 11:12:09;;;;;;;2.50;1.10;;;22.50;99.90;;;;;;5092397;28;20394;-70
2021/05/13 11:17:42;;;;;;;2.00;1.00;;;22.30;99.90;;;;;;5093018;28;20153;-70
2021/05/13 11:20:34;;;;;;;1.87;1.00;;;23.00;99.90;;;;;;5092451;28;20409;-70
2021/05/13 11:23:01;;;;;;;3.23;0.90;;;22.80;99.90;;;;;;5092637;28;20398;-70
2021/05/13 11:25:43;;;;;;;2.13;1.00;;;23.00;99.90;;;;;;5092660;28;20428;-71
2021/05/13 11:28:30;;;;;;;2.07;1.00;;;23.60;99.90;;;;;;5092462;28;20393;-71
2021/05/13 11:31:09;;;;;;;2.77;1.17;;;23.90;99.90;;;;;;5096213;28;20436;-70
2021/05/13 11:33:56;;;;;;;4.30;0.90;;;23.30;99.90;;;;;;5096298;28;20442;-70
2021/05/13 11:36:30;;;;;;;2.20;1.00;;;22.40;99.90;;;;;;5096068;28;20943;-70
2021/05/13 11:38:57;;;;;;;1.73;0.93;;;22.30;99.90;;;;;;5096266;28;20419;-70
2021/05/13 11:41:23;;;;;;;4.33;1.03;;;23.20;99.90;;;;;;5096206;28;20833;-71
2021/05/13 11:43:49;;;;;;;3.47;0.90;;;23.10;99.90;;;;;;5096083;28;20437;-71
2021/05/13 11:46:20;;;;;;;1.73;1.10;;;23.40;99.90;;;;;;5096199;28;20416;-70
2021/05/13 11:48:47;;;;;;;2.57;0.90;;;22.30;99.90;;;;;;5096228;28;20413;-70
2021/05/13 11:51:20;;;;;;;1.40;0.70;;;21.80;99.90;;;;;;5095802;28;20437;-70
2021/05/13 11:53:47;;;;;;;7.60;1.47;;;22.30;99.90;;;;;;5095948;28;20409;-70
2021/05/13 11:56:14;;;;;;;2.60;1.23;;;23.50;99.90;;;;;;5095799;28;20431;-70
2021/05/13 11:58:46;;;;;;;4.80;1.20;;;23.00;99.90;;;;;;5095835;28;20805;-71
2021/05/13 12:01:25;;;;;;;2.33;1.00;;;23.60;99.90;;;;;;5095565;28;20409;-70
2021/05/13 12:04:12;;;;;;;4.43;1.47;;;22.70;99.90;;;;;;5095529;28;20988;-69
2021/05/13 12:06:57;;;;;;;2.83;1.10;;;22.50;99.90;;;;;;5095733;28;20413;-70
2021/05/13 12:09:24;;;;;;;4.70;0.90;;;23.10;99.90;;;;;;5095373;28;20419;-70
2021/05/13 12:11:51;;;;;;;4.63;1.90;;;24.20;99.90;;;;;;5095338;28;20500;-71
2021/05/13 12:14:23;;;;;;;5.33;1.70;;;24.50;99.90;;;;;;5095129;28;20875;-71
2021/05/13 12:16:53;;;;;;;3.23;1.23;;;24.30;99.90;;;;;;5095366;28;20905;-71
2021/05/13 12:19:18;;;;;;;2.00;1.03;;;24.40;99.90;;;;;;5095494;28;20817;-71
2021/05/13 12:21:44;;;;;;;1.80;0.90;;;23.70;99.90;;;;;;5095247;28;20447;-70
2021/05/13 12:24:10;;;;;;;2.87;1.13;;;23.80;99.90;;;;;;5095058;28;20656;-70
2021/05/13 12:26:37;;;;;;;9.83;1.27;;;24.80;99.90;;;;;;5095204;28;20172;-70
2021/05/13 12:29:05;;;;;;;3.47;1.20;;;25.10;99.90;;;;;;5094407;28;20178;-71
2021/05/13 12:31:36;;;;;;;4.20;1.23;;;25.50;99.90;;;;;;5095125;28;20452;-70
2021/05/13 12:34:04;;;;;;;2.80;1.33;;;25.70;99.90;;;;;;5095137;28;20942;-70
2021/05/13 12:36:34;;;;;;;2.13;1.30;;;25.70;99.90;;;;;;5095111;28;20405;-70
2021/05/13 12:39:01;;;;;;;3.63;2.50;;;25.60;99.90;;;;;;5094973;28;20386;-70
2021/05/13 12:41:28;;;;;;;4.13;1.50;;;25.60;99.90;;;;;;5093983;28;20412;-70
2021/05/13 12:44:13;;;;;;;1.93;1.13;;;24.90;99.90;;;;;;5094799;28;20401;-70
2021/05/13 12:46:44;;;;;;;3.10;1.50;;;24.80;99.90;;;;;;5095133;28;20378;-70
2021/05/13 12:49:24;;;;;;;1.60;1.20;;;25.20;99.90;;;;;;5094675;28;20417;-69
2021/05/13 12:52:10;;;;;;;3.90;1.33;;;24.40;99.90;;;;;;5094695;28;20378;-70
2021/05/13 12:54:41;;;;;;;2.50;1.30;;;23.60;99.90;;;;;;5094911;28;20432;-69
2021/05/13 12:57:15;;;;;;;2.30;0.90;;;22.90;99.90;;;;;;5094652;28;20754;-70
2021/05/13 12:59:57;;;;;;;3.60;1.20;;;23.70;99.90;;;;;;5094644;28;20374;-69
2021/05/13 13:02:24;;;;;;;2.13;1.07;;;23.40;99.90;;;;;;5094628;28;20496;-70
2021/05/13 13:04:51;;;;;;;2.77;1.27;;;22.50;99.90;;;;;;5094495;28;20453;-69